Terminal Aerodrome Forecast
Issued by NWS

Current Version | Previous Version | Text Only | Print | Product List | Glossary Off
Versions: 1 2 3 4 5 6 7 8 9 10 11 12 13 14 15 16 17 18 19 20 21 22 23 24 25 26 27 28 29 30 31

000
FTUS41 KILN 190800 AAB
TAFLUK
TAF AMD
KLUK 190858Z 1909/2006 00000KT P6SM SCT013 BKN024 OVC035
      TEMPO 1909/1912 4SM -RA BR OVC013
     FM191200 10005KT P6SM VCSH OVC025
     FM191900 10006KT P6SM -SHRA BKN025 OVC080
     FM200000 11003KT P6SM OVC025=

USA.gov is the U.S. government's official web portal to all federal, state and local government web resources and services.